Forney's Hourly Summary for Saturday, May 12, 2018
Hour Temp
(f)
RH
(%)
Solar Rad.
(MJ/m2)
Rainfall
(in)
Wind
(mph)
5/12/2018 12:00 AM 74 63 0 0 3.07
5/12/2018 1:00 AM 74 70 0 0 5.85
5/12/2018 2:00 AM 74 71 0 0 6.94
5/12/2018 3:00 AM 72 75 0 0 6.17
5/12/2018 4:00 AM 71 79 0 0 5.66
5/12/2018 5:00 AM 71 82 0 0 5.56
5/12/2018 6:00 AM 72 82 0 0 4.88
5/12/2018 7:00 AM 72 82 0.02 0 3.59
5/12/2018 8:00 AM 72 82 0.34 0 2.85
5/12/2018 9:00 AM 74 77 0.97 0 5
5/12/2018 10:00 AM 76 71 1.11 0 5.66
5/12/2018 11:00 AM 78 63 1.89 0 5.51
5/12/2018 12:00 PM 81 54 2.38 0 6.1
5/12/2018 1:00 PM 84 50 2.92 0 6.37
5/12/2018 2:00 PM 85 45 3.21 0 6.88
5/12/2018 3:00 PM 86 43 2.83 0 6.42
5/12/2018 4:00 PM 87 42 2.87 0 5.71
5/12/2018 5:00 PM 87 43 2.03 0 5.94
5/12/2018 6:00 PM 87 42 1.55 0 5.8
5/12/2018 7:00 PM 87 42 0.87 0 4.23
5/12/2018 8:00 PM 84 46 0.13 0 2.01
5/12/2018 9:00 PM 81 54 0.01 0 1.3
5/12/2018 10:00 PM 78 61 0 0 2.33
5/12/2018 11:00 PM 77 65 0 0 1.5
Data Summary 78 61 23.13 0.00 4.81